Terminal Aerodrome Forecast
Issued by NWS

Home | Current Version | Previous Version | Text Only | Print | Product List | Glossary On
Versions: 1 2 3 4 5 6 7 8 9 10 11 12 13 14 15 16
036
FTUS43 KMQT 211137
TAFIWD
TAF
KIWD 211137Z 2112/2212 14004KT P6SM OVC008
     FM211400 13005KT 5SM BR VCSH OVC008
     FM211800 13005KT 4SM -RA BR OVC008
     FM212000 12005KT 3SM -RA BR OVC003
     FM220100 12003KT 1 1/2SM BR VCSH OVC003
     FM220600 00000KT 3SM BR OVC003
     FM221100 00000KT 1/2SM FG OVC001=

USA.gov is the U.S. government's official web portal to all federal, state and local government web resources and services.